Airfield :
LOGIN :

Register | Disclaimer

   EN    FR    IT 

 










Legend :    VFR   Marginal VFR   IFR   Intensive IFR   Very Intensive IFR
Visi :
Ceiling :
>= 8 km
>= 3000ft
5 to 8 km
1000 to 3000 ft
1500m to 5 km
500 to 1000 ft
800 to 1500m
200 to 500 ft
< 800m
< 200 ft
Symbols :   Thunderstorms  Fog  Heavy snow  Heavy precipitations  Wind > 20 kt
SIGMETs :     Misc.  Thunderstorms  Icing  Turbulence  Mountain Waves  Volcanic Ashes







- Airport Elevation : 39 ft
- IATA code : CTA


LICC - Catania Fontanarossa

CURRENT METAR :
  • 161450Z 27018KT 9999 FEW030 17/05 Q1019

EXPIRED METARs :
  • 161420Z 27020G30KT 9999 FEW030 18/06 Q1019
  • 161350Z 28020KT 9999 FEW030 18/05 Q1019
  • 161320Z 27019KT 9999 FEW030 18/05 Q1019
  • 161250Z 27018KT 9999 FEW030 18/06 Q1020
  • 161220Z 27017KT 9999 FEW030 18/06 Q1020

TAF AMD TAF LICC
Valid from the 16 at 12:00 until the 17 at 12:00 UTC


161204Z 1612/1712 25015KT 9999 SCT030
TEMPO 1612/1616 25018G28KT
BECMG 1620/1622 28020G30KT
No reported NOTAMs for that airfield.
2 SIGMETs reported for the Roma FIR (LIRR) :
 
Severe turbulence
LIRR SIGMET 6 VALID 161400/161800 LIIB
LIRR ROMA FIR SEV TURB FCST WI N4118 E00931 - N3909 E01110 - N3902 E01419 - N4001 E01545 - N4115 E01504 - N4128 E01425 - N4254 E01303 - N4331 E01319 - N4342 E01113 - N4334 E01022 - N4313 E00945 - N4119 E00946 - N4118 E00931 FL200/350 MOV ESE NC=
Severe mountain waves
LIRR SIGMET 5 VALID 161400/161800 LIIB
LIRR ROMA FIR SEV MTW FCST WI N4202 E00945 - N4141 E01206 - N4051 E01331 - N4007 E01258 - N4007 E00758 - N4058 E00758 - N4119 E00821 - N4117 E00943 - N4202 E00945 STNR NC=



MET'MAP, your aeronautical weather chart ! - Copyright ORBIFLY December 2007 - Disclaimer

ORBIFLY MET'MAP TEAM :

Programming & Development : Alexandra Zaïnal
Concept & Development : Baudouin d'Aumeries
Co-Development & Prog : Marc-Olivier Méhu
Technical & hardware support : Manuel Goepfert

Contact : metmap@orbifly.com




SOURCES & CREDITS :

   NOAA